Time;durP1;ratioP1;P1;durP2;ratioP2;P2;SDS_P1;SDS_P2;PMS_P1;PMS_P2;Temp;Humidity;BMP_temperature;BMP_pressure;BME280_temperature;BME280_humidity;BME280_pressure;Samples;Min_cycle;Max_cycle;Signal;HPM_P1;HPM_P2
2023/12/15 00:00:04;;;;;;;;;;;;;;;4.84;100.00;102629.72;4974218;28;19924;-72
2023/12/15 00:02:29;;;;;;;;;;;;;;;4.84;100.00;102627.94;4984969;28;20037;-74
2023/12/15 00:04:54;;;;;;;;;;;;;;;4.90;100.00;102627.78;4984145;28;20312;-72
2023/12/15 00:07:19;;;;;;;;;;;;;;;4.92;100.00;102631.28;4971702;28;20642;-72
2023/12/15 00:09:44;;;;;;;;;;;;;;;4.97;100.00;102640.94;4986578;28;19934;-73
2023/12/15 00:12:10;;;;;;;;;;;;;;;5.02;100.00;102649.69;4973188;28;19972;-73
2023/12/15 00:14:35;;;;;;;;;;;;;;;5.04;100.00;102661.16;4983467;28;20338;-74
2023/12/15 00:17:00;;;;;;;;;;;;;;;5.07;100.00;102669.06;4987747;28;20311;-74
2023/12/15 00:19:26;;;;;;;;;;;;;;;5.03;100.00;102664.75;4985319;28;20391;-72
2023/12/15 00:21:51;;;;;;;;;;;;;;;5.05;100.00;102663.78;4983299;28;20358;-74
2023/12/15 00:24:16;;;;;;;;;;;;;;;5.04;100.00;102678.00;4978574;28;19922;-72
2023/12/15 00:26:41;;;;;;;;;;;;;;;5.03;100.00;102672.75;4982764;28;20402;-72
2023/12/15 00:29:07;;;;;;;;;;;;;;;5.02;100.00;102668.34;4982679;28;20021;-72
2023/12/15 00:31:32;;;;;;;;;;;;;;;5.01;100.00;102661.25;4964536;28;19932;-73
2023/12/15 00:33:57;;;;;;;;;;;;;;;5.01;100.00;102659.44;4980203;28;20013;-72
2023/12/15 00:36:23;;;;;;;;;;;;;;;5.02;100.00;102652.34;4984458;28;20023;-73
2023/12/15 00:38:48;;;;;;;;;;;;;;;4.97;100.00;102649.78;4982530;28;20337;-72
2023/12/15 00:41:13;;;;;;;;;;;;;;;4.99;100.00;102639.97;4985317;28;19922;-72
2023/12/15 00:43:38;;;;;;;;;;;;;;;4.96;100.00;102624.06;4969467;28;19925;-71
2023/12/15 00:46:04;;;;;;;;;;;;;;;4.99;100.00;102625.81;4984923;28;19976;-72
2023/12/15 00:48:29;;;;;;;;;;;;;;;4.98;100.00;102621.41;4985049;28;20233;-72
2023/12/15 00:50:54;;;;;;;;;;;;;;;5.05;100.00;102620.31;4989284;28;20267;-72
2023/12/15 00:53:20;;;;;;;;;;;;;;;5.03;100.00;102616.84;4984623;28;20265;-72
2023/12/15 00:55:45;;;;;;;;;;;;;;;5.02;100.00;102610.63;4987334;28;19929;-73
2023/12/15 00:58:10;;;;;;;;;;;;;;;5.03;100.00;102608.84;4989998;28;19926;-72
2023/12/15 01:00:35;;;;;;;;;;;;;;;5.04;100.00;102608.78;4985278;28;19992;-72
2023/12/15 01:03:01;;;;;;;;;;;;;;;5.08;100.00;102602.47;4984727;28;20272;-73
2023/12/15 01:05:27;;;;;;;;;;;;;;;5.09;100.00;102608.66;4987421;28;20024;-72
2023/12/15 01:07:53;;;;;;;;;;;;;;;5.09;100.00;102600.66;4983114;28;20044;-73
2023/12/15 01:10:18;;;;;;;;;;;;;;;5.10;100.00;102603.31;4988805;28;20023;-73
2023/12/15 01:12:43;;;;;;;;;;;;;;;5.12;100.00;102613.06;4972863;28;20346;-73
2023/12/15 01:15:08;;;;;;;;;;;;;;;5.09;100.00;102606.00;4986249;28;20450;-73
2023/12/15 01:17:34;;;;;;;;;;;;;;;5.08;100.00;102613.13;4998807;28;20350;-72
2023/12/15 01:19:59;;;;;;;;;;;;;;;5.16;100.00;102612.91;4986769;28;20360;-72
2023/12/15 01:22:24;;;;;;;;;;;;;;;5.14;100.00;102609.41;4999320;28;20043;-72
2023/12/15 01:24:49;;;;;;;;;;;;;;;5.14;100.00;102613.88;4986624;28;20346;-74
2023/12/15 01:27:15;;;;;;;;;;;;;;;5.12;100.00;102616.56;4983784;28;21051;-73
2023/12/15 01:29:40;;;;;;;;;;;;;;;5.14;100.00;102616.56;4986596;28;20283;-73
2023/12/15 01:32:05;;;;;;;;;;;;;;;5.14;100.00;102617.41;4971901;28;19925;-73
2023/12/15 01:34:31;;;;;;;;;;;;;;;5.15;100.00;102613.84;4987928;28;19991;-73
2023/12/15 01:36:56;;;;;;;;;;;;;;;5.15;100.00;102610.31;4987238;28;20320;-73
2023/12/15 01:39:21;;;;;;;;;;;;;;;5.21;100.00;102624.31;4972596;28;19921;-73
2023/12/15 01:41:46;;;;;;;;;;;;;;;5.22;100.00;102618.09;4985016;28;19922;-72
2023/12/15 01:44:12;;;;;;;;;;;;;;;5.18;100.00;102618.19;4983599;28;20001;-73
2023/12/15 01:46:37;;;;;;;;;;;;;;;5.18;100.00;102615.53;4982823;28;19929;-72
2023/12/15 01:49:02;;;;;;;;;;;;;;;5.22;100.00;102626.06;4985501;28;20403;-73
2023/12/15 01:51:27;;;;;;;;;;;;;;;5.19;100.00;102614.63;4976578;28;20321;-73
2023/12/15 01:53:52;;;;;;;;;;;;;;;5.19;100.00;102619.94;4986339;28;20332;-73
2023/12/15 01:56:18;;;;;;;;;;;;;;;5.22;100.00;102617.19;4976936;28;20272;-73
2023/12/15 01:58:43;;;;;;;;;;;;;;;5.22;100.00;102625.19;4984245;28;20406;-72
2023/12/15 02:01:08;;;;;;;;;;;;;;;5.21;100.00;102615.44;4974478;28;20456;-72
2023/12/15 02:03:34;;;;;;;;;;;;;;;5.21;100.00;102613.69;4984909;28;20255;-73
2023/12/15 02:05:59;;;;;;;;;;;;;;;5.26;100.00;102618.88;4983334;28;19921;-73
2023/12/15 02:08:24;;;;;;;;;;;;;;;5.25;100.00;102617.13;4987741;28;20008;-72
2023/12/15 02:10:50;;;;;;;;;;;;;;;5.08;100.00;102575.84;4987407;28;19929;-71
2023/12/15 02:13:15;;;;;;;;;;;;;;;5.20;100.00;102600.38;4988583;28;19961;-72
2023/12/15 02:15:40;;;;;;;;;;;;;;;5.22;100.00;102593.22;4987545;28;19930;-71
2023/12/15 02:18:05;;;;;;;;;;;;;;;5.22;100.00;102587.91;4988175;28;20371;-72
2023/12/15 02:20:31;;;;;;;;;;;;;;;5.22;100.00;102593.22;4985646;28;19934;-71
2023/12/15 02:22:57;;;;;;;;;;;;;;;5.23;100.00;102597.63;4986736;28;20426;-72
2023/12/15 02:25:22;;;;;;;;;;;;;;;5.23;100.00;102590.53;4986721;28;19929;-71
2023/12/15 02:27:48;;;;;;;;;;;;;;;5.30;100.00;102609.03;4991205;28;19921;-71
2023/12/15 02:30:13;;;;;;;;;;;;;;;5.31;100.00;102608.09;5001807;28;19957;-71
2023/12/15 02:32:38;;;;;;;;;;;;;;;5.34;100.00;102610.66;4989298;28;20017;-72
2023/12/15 02:35:03;;;;;;;;;;;;;;;5.35;100.00;102612.41;4984431;28;19932;-71
2023/12/15 02:37:29;;;;;;;;;;;;;;;5.32;100.00;102615.16;4989224;28;19925;-72
2023/12/15 02:39:54;;;;;;;;;;;;;;;5.34;100.00;102618.66;4987547;28;19922;-72
2023/12/15 02:42:19;;;;;;;;;;;;;;;5.39;100.00;102622.06;4987180;28;20088;-72
2023/12/15 02:44:45;;;;;;;;;;;;;;;5.23;100.00;102603.84;4972743;28;19936;-72
2023/12/15 02:47:10;;;;;;;;;;;;;;;5.42;100.00;102631.78;4988702;28;20300;-71
2023/12/15 02:49:37;;;;;;;;;;;;;;;5.39;100.00;102633.63;4980094;28;20925;-71
2023/12/15 02:52:03;;;;;;;;;;;;;;;5.47;100.00;102629.84;4982487;28;20024;-72
2023/12/15 02:54:28;;;;;;;;;;;;;;;5.44;100.00;102632.59;4974919;28;20313;-71
2023/12/15 02:56:53;;;;;;;;;;;;;;;5.45;100.00;102635.22;4982590;28;19971;-72
2023/12/15 02:59:18;;;;;;;;;;;;;;;5.51;100.00;102636.84;4987962;28;19921;-72
2023/12/15 03:01:44;;;;;;;;;;;;;;;5.51;100.00;102636.84;4990667;28;19921;-71
2023/12/15 03:04:09;;;;;;;;;;;;;;;5.53;100.00;102640.34;4993084;28;19929;-71
2023/12/15 03:06:34;;;;;;;;;;;;;;;5.54;100.00;102648.31;4993686;28;20016;-72
2023/12/15 03:08:59;;;;;;;;;;;;;;;5.51;100.00;102652.84;4989986;28;20356;-71
2023/12/15 03:11:25;;;;;;;;;;;;;;;5.54;100.00;102648.31;4973625;28;19997;-71
2023/12/15 03:13:50;;;;;;;;;;;;;;;5.58;100.00;102648.19;4971746;28;19922;-72
2023/12/15 03:16:16;;;;;;;;;;;;;;;5.61;100.00;102654.34;4989187;28;19926;-71
2023/12/15 03:18:41;;;;;;;;;;;;;;;5.56;100.00;102650.91;4975793;28;19926;-72
2023/12/15 03:21:07;;;;;;;;;;;;;;;5.53;100.00;102657.22;4973113;28;19917;-72
2023/12/15 03:23:32;;;;;;;;;;;;;;;5.55;100.00;102658.06;4980652;28;19945;-72
2023/12/15 03:25:57;;;;;;;;;;;;;;;5.53;100.00;102657.22;4967899;28;19922;-72
2023/12/15 03:28:23;;;;;;;;;;;;;;;5.58;100.00;102672.19;4966690;28;20281;-71
2023/12/15 03:30:48;;;;;;;;;;;;;;;5.65;100.00;102672.00;4989699;28;20047;-72
2023/12/15 03:33:13;;;;;;;;;;;;;;;5.62;100.00;102677.41;4983821;28;20355;-72
2023/12/15 03:35:38;;;;;;;;;;;;;;;5.62;100.00;102685.41;5006753;28;20284;-71
2023/12/15 03:38:04;;;;;;;;;;;;;;;5.64;100.00;102680.91;4989579;28;20205;-72
2023/12/15 03:40:30;;;;;;;;;;;;;;;5.64;100.00;102682.69;4973202;28;20303;-72
2023/12/15 03:42:55;;;;;;;;;;;;;;;5.65;100.00;102682.66;5001678;28;19933;-72
2023/12/15 03:45:20;;;;;;;;;;;;;;;5.63;100.00;102695.16;4972969;28;19932;-70
2023/12/15 03:47:45;;;;;;;;;;;;;;;5.71;100.00;102698.44;4982823;28;19980;-71
2023/12/15 03:50:10;;;;;;;;;;;;;;;5.77;100.00;102701.88;4999428;28;20024;-71
2023/12/15 03:52:36;;;;;;;;;;;;;;;5.75;100.00;102703.69;4982433;28;19929;-72
2023/12/15 03:55:01;;;;;;;;;;;;;;;5.73;100.00;102701.09;4999336;28;19949;-72
2023/12/15 03:57:26;;;;;;;;;;;;;;;5.76;100.00;102702.78;4972405;28;19972;-72
2023/12/15 03:59:51;;;;;;;;;;;;;;;5.79;100.00;102705.38;4983208;28;19976;-72
2023/12/15 04:02:19;;;;;;;;;;;;;;;5.80;100.00;102710.69;4983600;28;19922;-71
2023/12/15 04:04:44;;;;;;;;;;;;;;;5.78;100.00;102716.94;4984155;28;20340;-71
2023/12/15 04:07:09;;;;;;;;;;;;;;;5.75;100.00;102709.94;4985773;28;20150;-71
2023/12/15 04:09:34;;;;;;;;;;;;;;;5.77;100.00;102721.41;4970155;28;19984;-72
2023/12/15 04:12:00;;;;;;;;;;;;;;;5.80;100.00;102720.44;4985794;28;19922;-72
2023/12/15 04:14:25;;;;;;;;;;;;;;;5.80;100.00;102726.69;4983270;28;19922;-72
2023/12/15 04:16:50;;;;;;;;;;;;;;;5.86;100.00;102725.63;4984414;28;20392;-71
2023/12/15 04:19:15;;;;;;;;;;;;;;;5.79;100.00;102738.25;4980493;28;19922;-72
2023/12/15 04:21:40;;;;;;;;;;;;;;;5.80;100.00;102736.44;4999056;28;20003;-72
2023/12/15 04:24:06;;;;;;;;;;;;;;;5.77;100.00;102725.84;4988995;28;20212;-72
2023/12/15 04:26:32;;;;;;;;;;;;;;;5.82;100.00;102732.84;4988030;28;19922;-72
2023/12/15 04:28:57;;;;;;;;;;;;;;;5.82;100.00;102734.63;5008717;28;19968;-72
2023/12/15 04:31:22;;;;;;;;;;;;;;;5.85;100.00;102737.19;4988591;28;20044;-72
2023/12/15 04:33:47;;;;;;;;;;;;;;;5.85;100.00;102738.06;4974055;28;19933;-72
2023/12/15 04:36:13;;;;;;;;;;;;;;;5.80;100.00;102737.34;4975299;28;20157;-72
2023/12/15 04:38:38;;;;;;;;;;;;;;;5.85;100.00;102739.88;4988762;28;20009;-72
2023/12/15 04:41:03;;;;;;;;;;;;;;;5.82;100.00;102751.50;4988719;28;19921;-72
2023/12/15 04:43:28;;;;;;;;;;;;;;;5.82;100.00;102750.59;5004315;28;20001;-72
2023/12/15 04:45:54;;;;;;;;;;;;;;;5.83;100.00;102744.34;4989692;28;20013;-72
2023/12/15 04:48:19;;;;;;;;;;;;;;;5.69;100.00;102729.59;4989165;28;20386;-72
2023/12/15 04:50:45;;;;;;;;;;;;;;;5.82;100.00;102755.94;4989693;28;19933;-72
2023/12/15 04:53:10;;;;;;;;;;;;;;;5.84;100.00;102757.63;4987630;28;19968;-72
2023/12/15 04:55:35;;;;;;;;;;;;;;;5.84;100.00;102760.31;4993034;28;19925;-72
2023/12/15 04:58:00;;;;;;;;;;;;;;;5.90;100.00;102753.94;4991251;28;19925;-73
2023/12/15 05:00:25;;;;;;;;;;;;;;;5.82;100.00;102761.28;4986962;28;19964;-72
2023/12/15 05:02:51;;;;;;;;;;;;;;;5.90;100.00;102763.72;4994048;28;20443;-72
2023/12/15 05:05:16;;;;;;;;;;;;;;;5.90;100.00;102766.38;4991169;28;19922;-72
2023/12/15 05:07:41;;;;;;;;;;;;;;;5.88;100.00;102769.13;4992055;28;19961;-72
2023/12/15 05:10:07;;;;;;;;;;;;;;;5.88;100.00;102763.78;4978826;28;20375;-72
2023/12/15 05:12:34;;;;;;;;;;;;;;;5.86;100.00;102773.59;4969234;28;20396;-73
2023/12/15 05:14:59;;;;;;;;;;;;;;;5.83;100.00;102766.53;4991163;28;19928;-72
2023/12/15 05:17:24;;;;;;;;;;;;;;;5.89;100.00;102772.63;4993781;28;19921;-72
2023/12/15 05:19:49;;;;;;;;;;;;;;;5.94;100.00;102765.41;4989257;28;19921;-72
2023/12/15 05:22:14;;;;;;;;;;;;;;;5.91;100.00;102766.38;4983763;28;20011;-72
2023/12/15 05:24:40;;;;;;;;;;;;;;;5.93;100.00;102769.88;4988586;28;19968;-72
2023/12/15 05:27:05;;;;;;;;;;;;;;;5.96;100.00;102768.91;5000934;28;19937;-72
2023/12/15 05:29:31;;;;;;;;;;;;;;;5.96;100.00;102777.75;4976603;28;19925;-72
2023/12/15 05:31:56;;;;;;;;;;;;;;;5.94;100.00;102781.41;4988705;28;20375;-72
2023/12/15 05:34:21;;;;;;;;;;;;;;;5.96;100.00;102782.22;4972534;28;20077;-72
2023/12/15 05:36:46;;;;;;;;;;;;;;;5.94;100.00;102792.06;4986952;28;19968;-72
2023/12/15 05:39:14;;;;;;;;;;;;;;;5.94;100.00;102805.38;5005646;28;19928;-72
2023/12/15 05:41:42;;;;;;;;;;;;;;;5.95;100.00;102810.69;4974136;28;20606;-72
2023/12/15 05:44:08;;;;;;;;;;;;;;;5.98;100.00;102805.25;4986533;28;19933;-72
2023/12/15 05:46:35;;;;;;;;;;;;;;;5.98;100.00;102807.91;4988877;28;20376;-72
2023/12/15 05:49:00;;;;;;;;;;;;;;;5.96;100.00;102806.22;4988512;28;19925;-72
2023/12/15 05:51:25;;;;;;;;;;;;;;;6.01;100.00;102801.69;4988066;28;20291;-72
2023/12/15 05:53:51;;;;;;;;;;;;;;;6.04;100.00;102800.72;4988288;28;20339;-72
2023/12/15 05:56:16;;;;;;;;;;;;;;;6.02;100.00;102802.53;4992950;28;20446;-72
2023/12/15 05:58:41;;;;;;;;;;;;;;;5.99;100.00;102804.34;4990293;28;19925;-71
2023/12/15 06:01:06;;;;;;;;;;;;;;;6.01;100.00;102801.69;4983945;28;20024;-71
2023/12/15 06:03:31;;;;;;;;;;;;;;;6.03;100.00;102805.19;4986163;28;19981;-72
2023/12/15 06:05:57;;;;;;;;;;;;;;;6.09;100.00;102805.00;4989034;28;19917;-72
2023/12/15 06:08:22;;;;;;;;;;;;;;;6.11;100.00;102803.16;5002697;28;19918;-72
2023/12/15 06:10:49;;;;;;;;;;;;;;;6.16;100.00;102800.38;4985360;28;19926;-72
2023/12/15 06:13:14;;;;;;;;;;;;;;;6.17;100.00;102815.47;5008382;28;19921;-72
2023/12/15 06:15:39;;;;;;;;;;;;;;;6.16;100.00;102813.72;4990891;28;20566;-71
2023/12/15 06:18:05;;;;;;;;;;;;;;;6.21;100.00;102829.59;4997425;28;20596;-72
2023/12/15 06:20:30;;;;;;;;;;;;;;;6.26;100.00;102827.69;4999724;28;20379;-72
2023/12/15 06:22:57;;;;;;;;;;;;;;;6.27;100.00;102834.75;4994508;28;20035;-71
2023/12/15 06:25:22;;;;;;;;;;;;;;;6.32;100.00;102834.63;4986561;28;19956;-71
2023/12/15 06:27:47;;;;;;;;;;;;;;;6.25;100.00;102842.78;4992620;28;20008;-72
2023/12/15 06:30:13;;;;;;;;;;;;;;;6.24;100.00;102846.38;4991757;28;19964;-72
2023/12/15 06:32:38;;;;;;;;;;;;;;;6.25;100.00;102856.13;4989603;28;20007;-72
2023/12/15 06:35:05;;;;;;;;;;;;;;;6.21;100.00;102864.28;4988413;28;20012;-72
2023/12/15 06:37:30;;;;;;;;;;;;;;;6.26;100.00;102873.03;4992607;28;19925;-72
2023/12/15 06:39:55;;;;;;;;;;;;;;;6.27;100.00;102872.97;4992458;28;19921;-72
2023/12/15 06:42:21;;;;;;;;;;;;;;;6.29;100.00;102876.47;4991052;28;20034;-72
2023/12/15 06:44:47;;;;;;;;;;;;;;;6.29;100.00;102878.28;4967492;28;19976;-72
2023/12/15 06:47:12;;;;;;;;;;;;;;;6.30;100.00;102875.56;5003159;28;20395;-72
2023/12/15 06:49:37;;;;;;;;;;;;;;;6.28;100.00;102876.53;4988767;28;20382;-72
2023/12/15 06:52:02;;;;;;;;;;;;;;;6.34;100.00;102871.03;4990109;28;20335;-72
2023/12/15 06:54:28;;;;;;;;;;;;;;;6.30;100.00;102891.56;4989901;28;19932;-72
2023/12/15 06:56:53;;;;;;;;;;;;;;;6.33;100.00;102887.97;4991854;28;19928;-72
2023/12/15 06:59:18;;;;;;;;;;;;;;;6.36;100.00;102882.50;4994231;28;19932;-72
2023/12/15 07:01:43;;;;;;;;;;;;;;;6.31;100.00;102892.47;4990673;28;20453;-72
2023/12/15 07:04:08;;;;;;;;;;;;;;;6.30;100.00;102902.25;4988909;28;20379;-72
2023/12/15 07:06:34;;;;;;;;;;;;;;;6.26;100.00;102924.56;4991345;28;20351;-72
2023/12/15 07:08:59;;;;;;;;;;;;;;;6.32;100.00;102918.22;4988798;28;19963;-72
2023/12/15 07:11:24;;;;;;;;;;;;;;;6.29;100.00;102918.31;4974013;28;19932;-73
2023/12/15 07:13:49;;;;;;;;;;;;;;;6.30;100.00;102917.38;4988065;28;19932;-72
2023/12/15 07:16:15;;;;;;;;;;;;;;;6.31;100.00;102916.47;4986432;28;19965;-72
2023/12/15 07:18:40;;;;;;;;;;;;;;;6.28;100.00;102922.75;4988684;28;19992;-72
2023/12/15 07:21:05;;;;;;;;;;;;;;;6.32;100.00;102928.00;4989399;28;20469;-72
2023/12/15 07:23:31;;;;;;;;;;;;;;;6.36;100.00;102924.34;4988804;28;20438;-72
2023/12/15 07:25:56;;;;;;;;;;;;;;;6.29;100.00;102924.50;4989178;28;19921;-72
2023/12/15 07:28:21;;;;;;;;;;;;;;;6.33;100.00;102925.31;4986495;28;19936;-72
2023/12/15 07:30:46;;;;;;;;;;;;;;;6.38;100.00;102923.38;4989573;28;20032;-72
2023/12/15 07:33:13;;;;;;;;;;;;;;;6.37;100.00;102936.78;4986648;28;20294;-72
2023/12/15 07:35:38;;;;;;;;;;;;;;;6.37;100.00;102942.97;4992336;28;19925;-72
2023/12/15 07:38:04;;;;;;;;;;;;;;;6.37;100.00;102955.44;4978830;28;19921;-71
2023/12/15 07:40:29;;;;;;;;;;;;;;;6.34;100.00;102956.41;4977225;28;19927;-73
2023/12/15 07:42:55;;;;;;;;;;;;;;;6.38;100.00;102962.53;4997036;28;19952;-73
2023/12/15 07:45:20;;;;;;;;;;;;;;;6.38;100.00;102950.06;4998059;28;20139;-73
2023/12/15 07:47:45;;;;;;;;;;;;;;;6.35;100.00;102955.50;4997808;28;19921;-73
2023/12/15 07:50:11;;;;;;;;;;;;;;;6.32;100.00;102965.38;4989311;28;20407;-72
2023/12/15 07:52:36;;;;;;;;;;;;;;;6.33;100.00;102964.44;4989106;28;20493;-73
2023/12/15 07:55:01;;;;;;;;;;;;;;;6.34;100.00;102966.19;4991278;28;20640;-73
2023/12/15 07:57:26;;;;;;;;;;;;;;;6.36;100.00;102969.72;4993257;28;20020;-73
2023/12/15 07:59:52;;;;;;;;;;;;;;;6.35;100.00;102968.84;4991228;28;19921;-73
2023/12/15 08:02:20;;;;;;;;;;;;;;;6.40;100.00;102976.72;4990628;28;20434;-73
2023/12/15 08:04:45;;;;;;;;;;;;;;;6.40;100.00;102974.06;4985332;28;20246;-73
2023/12/15 08:07:10;;;;;;;;;;;;;;;6.44;100.00;102973.91;4989937;28;20016;-73
2023/12/15 08:09:35;;;;;;;;;;;;;;;6.45;100.00;102977.47;4990257;28;20036;-73
2023/12/15 08:12:01;;;;;;;;;;;;;;;6.43;100.00;102995.31;4986422;28;19926;-73
2023/12/15 08:14:27;;;;;;;;;;;;;;;6.47;100.00;102990.78;4983084;28;20244;-73
2023/12/15 08:16:52;;;;;;;;;;;;;;;6.51;100.00;102995.13;4986426;28;19965;-73
2023/12/15 08:19:17;;;;;;;;;;;;;;;6.50;100.00;103012.03;4983411;28;20028;-73
2023/12/15 08:21:42;;;;;;;;;;;;;;;6.51;100.00;103019.13;4985228;28;19992;-73
2023/12/15 08:24:08;;;;;;;;;;;;;;;6.55;100.00;103029.69;4980999;28;19928;-73
2023/12/15 08:26:33;;;;;;;;;;;;;;;6.58;100.00;103040.28;4989390;28;19944;-73
2023/12/15 08:28:58;;;;;;;;;;;;;;;6.64;100.00;103043.72;4991296;28;20024;-73
2023/12/15 08:31:24;;;;;;;;;;;;;;;6.61;100.00;103039.34;4990287;28;19925;-73
2023/12/15 08:33:49;;;;;;;;;;;;;;;6.62;100.00;103046.44;4968201;28;19925;-73
2023/12/15 08:36:14;;;;;;;;;;;;;;;6.64;100.00;103049.91;4993577;28;19960;-72
2023/12/15 08:38:40;;;;;;;;;;;;;;;6.67;100.00;103063.19;4985847;28;20308;-73
2023/12/15 08:41:06;;;;;;;;;;;;;;;6.66;100.00;103068.59;4991830;28;20052;-73
2023/12/15 08:43:32;;;;;;;;;;;;;;;6.66;100.00;103073.94;4989979;28;19921;-73
2023/12/15 08:45:57;;;;;;;;;;;;;;;6.69;100.00;103087.19;4973144;28;19929;-73
2023/12/15 08:48:22;;;;;;;;;;;;;;;6.69;100.00;103089.88;4973701;28;19922;-73
2023/12/15 08:50:47;;;;;;;;;;;;;;;6.70;100.00;103100.50;4987512;28;19925;-73
2023/12/15 08:53:15;;;;;;;;;;;;;;;6.74;100.00;103096.84;4988442;28;19924;-73
2023/12/15 08:55:40;;;;;;;;;;;;;;;6.78;100.00;103100.28;4989989;28;19929;-73
2023/12/15 08:58:05;;;;;;;;;;;;;;;6.82;100.00;103103.78;4991227;28;19929;-72
2023/12/15 09:00:30;;;;;;;;;;;;;;;6.81;100.00;103107.38;4986295;28;19980;-73
2023/12/15 09:02:57;;;;;;;;;;;;;;;6.84;100.00;103113.50;4989179;28;20032;-73
2023/12/15 09:05:23;;;;;;;;;;;;;;;6.87;100.00;103115.22;4990991;28;20046;-73
2023/12/15 09:07:49;;;;;;;;;;;;;;;6.87;100.00;103115.22;4992541;28;19921;-73
2023/12/15 09:10:14;;;;;;;;;;;;;;;6.93;100.00;103120.38;4990195;28;20394;-73
2023/12/15 09:12:39;;;;;;;;;;;;;;;6.91;100.00;103127.56;4986626;28;21073;-73
2023/12/15 09:15:05;;;;;;;;;;;;;;;6.94;100.00;103131.97;4991582;28;19937;-73
2023/12/15 09:17:30;;;;;;;;;;;;;;;6.95;100.00;103141.72;4985435;28;20366;-73
2023/12/15 09:19:55;;;;;;;;;;;;;;;6.99;100.00;103148.75;4993450;28;19961;-73
2023/12/15 09:22:20;;;;;;;;;;;;;;;6.98;100.00;103157.69;4985960;28;19925;-73
2023/12/15 09:24:46;;;;;;;;;;;;;;;6.99;100.00;103162.97;4991989;28;19944;-73
2023/12/15 09:27:11;;;;;;;;;;;;;;;7.03;100.00;103170.00;4991977;28;19960;-73
2023/12/15 09:29:36;;;;;;;;;;;;;;;6.99;100.00;103184.34;4988972;28;19922;-73
2023/12/15 09:32:02;;;;;;;;;;;;;;;7.04;100.00;103187.78;4989687;28;19931;-72
2023/12/15 09:34:27;;;;;;;;;;;;;;;7.05;100.00;103197.56;4976190;28;19929;-73
2023/12/15 09:36:52;;;;;;;;;;;;;;;7.04;100.00;103210.94;4988932;28;20283;-73
2023/12/15 09:39:17;;;;;;;;;;;;;;;7.08;100.00;103217.94;4990694;28;20005;-72
2023/12/15 09:41:43;;;;;;;;;;;;;;;7.14;100.00;103225.81;4993787;28;19971;-72
2023/12/15 09:44:08;;;;;;;;;;;;;;;7.21;100.00;103226.53;4988137;28;19959;-73
2023/12/15 09:46:33;;;;;;;;;;;;;;;7.23;100.00;103240.75;4986908;28;19929;-73
2023/12/15 09:48:59;;;;;;;;;;;;;;;7.30;100.00;103246.78;4995526;28;19921;-73
2023/12/15 09:51:25;;;;;;;;;;;;;;;7.36;100.00;103262.69;4994275;28;19925;-73
2023/12/15 09:53:50;;;;;;;;;;;;;;;7.38;100.00;103273.34;4994216;28;19917;-73
2023/12/15 09:56:15;;;;;;;;;;;;;;;7.38;100.00;103282.25;4994205;28;20261;-70
2023/12/15 09:58:40;;;;;;;;;;;;;;;7.43;100.00;103274.09;4989244;28;20388;-73
2023/12/15 10:01:06;;;;;;;;;;;;;;;7.44;100.00;103284.75;4991748;28;20348;-73
2023/12/15 10:03:31;;;;;;;;;;;;;;;7.48;100.00;103285.56;4989801;28;20546;-73
2023/12/15 10:05:56;;;;;;;;;;;;;;;7.49;100.00;103288.19;4990904;28;20366;-73
2023/12/15 10:08:23;;;;;;;;;;;;;;;7.47;100.00;103298.06;4984912;28;19993;-73
2023/12/15 10:10:49;;;;;;;;;;;;;;;7.52;100.00;103302.41;4991788;28;19988;-73
2023/12/15 10:13:14;;;;;;;;;;;;;;;7.58;100.00;103312.91;4975090;28;20324;-73
2023/12/15 10:15:39;;;;;;;;;;;;;;;7.55;100.00;103321.06;4992024;28;19937;-73
2023/12/15 10:18:04;;;;;;;;;;;;;;;7.62;100.00;103318.19;4988575;28;20368;-73
2023/12/15 10:20:30;;;;;;;;;;;;;;;7.58;100.00;103328.97;4992641;28;20388;-73
2023/12/15 10:23:02;;;;;;;;;;;;;;;7.66;100.00;103343.03;4972049;28;20036;-73
2023/12/15 10:25:27;;;;;;;;;;;;;;;7.61;100.00;103347.59;4974849;28;20064;-73
2023/12/15 10:27:52;;;;;;;;;;;;;;;7.65;100.00;103346.63;4979598;28;20016;-73
2023/12/15 10:30:17;;;;;;;;;;;;;;;7.62;100.00;103347.59;4989201;28;19925;-73
2023/12/15 10:32:43;;;;;;;;;;;;;;;7.72;100.00;103352.69;4992232;28;19949;-73
2023/12/15 10:35:10;;;;;;;;;;;;;;;7.77;100.00;103366.81;4991539;28;19964;-73
2023/12/15 10:37:35;;;;;;;;;;;;;;;7.76;100.00;103378.44;4994131;28;20334;-73
2023/12/15 10:40:01;;;;;;;;;;;;;;;7.75;100.00;103392.72;4989806;28;19921;-73
2023/12/15 10:42:26;;;;;;;;;;;;;;;7.74;100.00;103396.31;4968401;28;19933;-73
2023/12/15 10:44:52;;;;;;;;;;;;;;;7.72;100.00;103392.78;4989416;28;20265;-73
2023/12/15 10:47:17;;;;;;;;;;;;;;;7.77;100.00;103410.50;4987718;28;20417;-73
2023/12/15 10:49:43;;;;;;;;;;;;;;;7.80;100.00;103406.88;4989543;28;19992;-73
2023/12/15 10:52:08;;;;;;;;;;;;;;;7.88;100.00;103412.91;4970276;28;19925;-73
2023/12/15 10:54:33;;;;;;;;;;;;;;;7.80;100.00;103406.88;4987138;28;19921;-73
2023/12/15 10:56:59;;;;;;;;;;;;;;;7.77;100.00;103406.94;4992045;28;19932;-73
2023/12/15 10:59:27;;;;;;;;;;;;;;;7.86;100.00;103420.09;4990727;28;19925;-73
2023/12/15 11:01:52;;;;;;;;;;;;;;;7.92;100.00;103427.06;4993221;28;19948;-73
2023/12/15 11:04:19;;;;;;;;;;;;;;;8.05;100.00;103433.00;4988436;28;20318;-73
2023/12/15 11:06:44;;;;;;;;;;;;;;;8.05;100.00;103433.88;4990042;28;20470;-73
2023/12/15 11:09:09;;;;;;;;;;;;;;;8.02;100.00;103435.75;4986116;28;20326;-73
2023/12/15 11:11:35;;;;;;;;;;;;;;;8.09;100.00;103437.34;4989342;28;19925;-73
2023/12/15 11:14:04;;;;;;;;;;;;;;;7.99;100.00;103426.00;4986001;28;19921;-73
2023/12/15 11:16:30;;;;;;;;;;;;;;;8.12;100.00;103453.34;4994305;28;20371;-73
2023/12/15 11:18:56;;;;;;;;;;;;;;;8.16;100.00;103448.78;4993057;28;19924;-73
2023/12/15 11:21:21;;;;;;;;;;;;;;;8.13;100.00;103456.88;4988102;28;19969;-73
2023/12/15 11:23:50;;;;;;;;;;;;;;;8.11;100.00;103447.09;4991875;28;19989;-73
2023/12/15 11:26:27;;;;;;;;;;;;;;;7.98;100.00;103467.06;4993770;28;19918;-74
2023/12/15 11:28:55;;;;;;;;;;;;;;;8.02;100.00;103462.50;4983074;28;19918;-73
2023/12/15 11:31:21;;;;;;;;;;;;;;;8.01;100.00;103464.31;4992378;28;20378;-73
2023/12/15 11:33:46;;;;;;;;;;;;;;;8.00;100.00;103465.22;4991729;28;19921;-73
2023/12/15 11:36:13;;;;;;;;;;;;;;;8.10;100.00;103464.06;4991488;28;19956;-73
2023/12/15 11:38:39;;;;;;;;;;;;;;;8.14;100.00;103464.88;4991774;28;20391;-73
2023/12/15 11:41:04;;;;;;;;;;;;;;;8.10;100.00;103458.72;4984296;28;19971;-73
2023/12/15 11:43:33;;;;;;;;;;;;;;;8.18;100.00;103466.56;4993549;28;19932;-72
2023/12/15 11:45:59;;;;;;;;;;;;;;;8.25;100.00;103453.91;4984806;28;19926;-73
2023/12/15 11:48:24;;;;;;;;;;;;;;;8.14;100.00;103431.88;4985243;28;19928;-73
2023/12/15 11:50:50;;;;;;;;;;;;;;;8.21;100.00;103454.88;4993456;28;19925;-73
2023/12/15 11:53:16;;;;;;;;;;;;;;;8.26;100.00;103456.50;4986758;28;19964;-73
2023/12/15 11:55:42;;;;;;;;;;;;;;;8.30;100.00;103457.34;4986378;28;19925;-72
2023/12/15 11:58:07;;;;;;;;;;;;;;;8.32;100.00;103459.97;4988748;28;19932;-73
2023/12/15 12:00:32;;;;;;;;;;;;;;;8.34;100.00;103450.97;4988277;28;20406;-73
2023/12/15 12:02:58;;;;;;;;;;;;;;;8.26;100.00;103439.59;4986704;28;19922;-73
2023/12/15 12:05:23;;;;;;;;;;;;;;;8.32;100.00;103439.44;4990608;28;20329;-73
2023/12/15 12:07:48;;;;;;;;;;;;;;;8.35;100.00;103438.47;4992702;28;20008;-73
2023/12/15 12:10:14;;;;;;;;;;;;;;;8.35;100.00;103449.19;4990038;28;19921;-73
2023/12/15 12:12:39;;;;;;;;;;;;;;;8.35;100.00;103455.38;4990715;28;19933;-73
2023/12/15 12:15:05;;;;;;;;;;;;;;;8.36;100.00;103451.78;4989728;28;19971;-73
2023/12/15 12:17:31;;;;;;;;;;;;;;;8.47;100.00;103435.47;4993381;28;19993;-73
2023/12/15 12:20:01;;;;;;;;;;;;;;;8.59;100.00;103436.06;4987878;28;19926;-73
2023/12/15 12:22:27;;;;;;;;;;;;;;;8.79;100.00;103447.09;4991608;28;19928;-73
2023/12/15 12:24:52;;;;;;;;;;;;;;;8.95;100.00;103439.50;4991291;28;19921;-73